createdAt,value
2022-11-15T00:04:48.200Z,82.52
2022-11-15T00:09:49.469Z,82.42
2022-11-15T00:14:50.714Z,82.37
2022-11-15T00:19:51.986Z,82.35
2022-11-15T00:24:53.200Z,82.59
2022-11-15T00:29:54.480Z,82.26
2022-11-15T00:34:55.727Z,82.21
2022-11-15T00:39:57.163Z,82.67
2022-11-15T00:44:58.386Z,81.96
2022-11-15T00:49:59.642Z,82.13
2022-11-15T00:55:00.932Z,82.27
2022-11-15T01:00:02.273Z,82.51
2022-11-15T01:05:04.013Z,82.79
2022-11-15T01:10:06.267Z,82.67
2022-11-15T01:15:08.019Z,82.94
2022-11-15T01:20:09.915Z,83.17
2022-11-15T01:25:11.181Z,83.16
2022-11-15T01:30:12.784Z,83.26
2022-11-15T01:35:14.059Z,83.00
2022-11-15T01:40:15.712Z,83.20
2022-11-15T01:45:17.337Z,83.08
2022-11-15T01:50:23.171Z,82.79
2022-11-15T01:55:28.344Z,82.63
2022-11-15T02:00:31.699Z,82.58
2022-11-15T02:05:33.760Z,82.24
2022-11-15T02:10:35.016Z,81.93
2022-11-15T02:15:51.076Z,81.66
2022-11-15T02:21:37.769Z,81.25
2022-11-15T02:27:17.941Z,80.74
2022-11-15T02:32:27.011Z,80.58
2022-11-15T02:37:40.211Z,80.71
2022-11-15T02:43:09.014Z,80.17
2022-11-15T02:48:11.770Z,80.26
2022-11-15T02:53:14.771Z,80.96
2022-11-15T02:58:36.752Z,80.59
2022-11-15T03:03:58.436Z,80.96
2022-11-15T03:09:19.975Z,81.31
2022-11-15T03:14:36.574Z,81.76
2022-11-15T03:19:56.632Z,81.67
2022-11-15T03:25:06.350Z,81.75
2022-11-15T03:30:09.689Z,82.34
2022-11-15T03:35:21.079Z,81.91
2022-11-15T03:40:28.677Z,81.71
2022-11-15T03:46:01.410Z,82.15
2022-11-15T03:51:04.557Z,82.54
2022-11-15T03:56:06.048Z,82.49
2022-11-15T04:01:07.437Z,82.72
2022-11-15T04:06:08.740Z,82.48
2022-11-15T04:11:10.003Z,82.43
2022-11-15T04:16:11.320Z,82.45
2022-11-15T04:21:31.276Z,82.39
2022-11-15T04:26:32.612Z,82.18
2022-11-15T04:31:34.068Z,82.16
2022-11-15T04:36:54.067Z,82.46
2022-11-15T04:41:55.638Z,82.43
2022-11-15T04:46:57.276Z,82.42
2022-11-15T04:51:58.607Z,82.67
2022-11-15T04:56:59.894Z,82.57
2022-11-15T05:02:01.157Z,82.52
2022-11-15T05:07:03.075Z,82.22
2022-11-15T05:12:04.491Z,82.00
2022-11-15T05:17:05.744Z,81.68
2022-11-15T05:22:07.214Z,81.28
2022-11-15T05:27:08.487Z,81.51
2022-11-15T05:32:10.395Z,81.25
2022-11-15T05:37:11.652Z,81.73
2022-11-15T05:42:14.955Z,81.35
2022-11-15T05:47:20.500Z,82.01
2022-11-15T05:52:25.765Z,81.92
2022-11-15T05:57:27.064Z,81.97
2022-11-15T06:02:28.404Z,81.99
2022-11-15T06:07:30.739Z,81.98
2022-11-15T06:12:32.158Z,82.11
2022-11-15T06:17:33.469Z,82.39
2022-11-15T06:22:34.721Z,82.22
2022-11-15T06:27:36.133Z,82.21
2022-11-15T06:32:37.510Z,82.21
2022-11-15T06:37:39.133Z,82.15
2022-11-15T06:42:40.382Z,82.18
2022-11-15T06:47:48.589Z,81.55
2022-11-15T06:52:50.049Z,82.09
2022-11-15T06:57:52.789Z,82.14
2022-11-15T07:02:54.138Z,82.17
2022-11-15T07:07:57.361Z,81.36
2022-11-15T07:12:58.583Z,81.80
2022-11-15T07:18:02.692Z,80.52
2022-11-15T07:23:06.021Z,80.48
2022-11-15T07:28:07.400Z,80.63
2022-11-15T07:33:08.835Z,79.57
2022-11-15T07:38:10.124Z,78.20
2022-11-15T07:43:11.459Z,78.11
2022-11-15T07:48:12.813Z,77.84
2022-11-15T07:53:14.098Z,77.51
2022-11-15T07:58:15.838Z,77.06
2022-11-15T08:03:18.258Z,77.38
2022-11-15T08:08:19.635Z,77.47
2022-11-15T08:13:22.040Z,77.45
2022-11-15T08:18:23.304Z,77.70
2022-11-15T08:23:24.564Z,77.26
2022-11-15T08:28:25.884Z,77.44
2022-11-15T08:33:27.445Z,77.56
2022-11-15T08:38:32.385Z,77.21
2022-11-15T08:43:34.796Z,77.07
2022-11-15T08:48:36.270Z,76.51
2022-11-15T08:53:37.652Z,76.61
2022-11-15T08:58:39.412Z,75.67
2022-11-15T09:03:41.285Z,75.40
2022-11-15T09:08:50.046Z,74.89
2022-11-15T09:13:51.356Z,75.18
2022-11-15T09:18:54.710Z,73.74
2022-11-15T09:23:56.443Z,73.63
2022-11-15T09:28:57.696Z,73.42
2022-11-15T09:33:59.182Z,71.99
2022-11-15T09:39:01.002Z,72.02
2022-11-15T09:44:05.226Z,71.32
2022-11-15T09:49:09.977Z,72.13
2022-11-15T09:54:53.522Z,72.09
2022-11-15T10:00:43.939Z,70.83
2022-11-15T10:05:39.439Z,65.44
2022-11-15T10:10:45.329Z,60.76
2022-11-15T10:15:49.221Z,56.83
2022-11-15T10:20:52.835Z,53.24
2022-11-15T10:25:56.761Z,53.84
2022-11-15T10:31:00.107Z,56.49
2022-11-15T10:36:10.686Z,59.02
2022-11-15T10:41:12.884Z,60.97
2022-11-15T10:51:57.293Z,64.32
2022-11-15T10:57:01.673Z,60.04
2022-11-15T11:02:03.139Z,61.82
2022-11-15T11:07:22.105Z,62.61
2022-11-15T11:12:30.958Z,63.17
2022-11-15T11:18:10.037Z,64.51
2022-11-15T11:23:17.193Z,63.50
2022-11-15T11:28:36.210Z,57.56
2022-11-15T11:34:14.609Z,53.08
2022-11-15T11:39:46.029Z,54.84
2022-11-15T11:45:06.003Z,52.70
2022-11-15T11:50:20.829Z,53.29
2022-11-15T11:55:46.542Z,55.71
2022-11-15T12:00:52.870Z,58.16
2022-11-15T12:05:58.469Z,59.66
2022-11-15T12:11:20.924Z,60.02
2022-11-15T12:16:27.155Z,58.10
2022-11-15T12:21:52.938Z,56.43
2022-11-15T12:27:14.763Z,59.43
2022-11-15T12:32:27.585Z,59.21
2022-11-15T12:37:49.253Z,60.13
2022-11-15T12:43:13.500Z,61.69
2022-11-15T12:48:17.786Z,63.42
2022-11-15T12:53:28.406Z,65.33
2022-11-15T12:58:57.142Z,66.60
2022-11-15T13:04:20.320Z,67.39
2022-11-15T13:09:37.030Z,67.04
2022-11-15T13:14:38.349Z,67.32
2022-11-15T13:19:39.624Z,68.67
2022-11-15T13:24:40.916Z,68.95
2022-11-15T13:29:44.500Z,69.42
2022-11-15T13:34:52.180Z,69.00
2022-11-15T13:39:53.902Z,68.71
2022-11-15T13:44:57.938Z,68.72
2022-11-15T13:50:00.164Z,68.74
2022-11-15T13:55:09.331Z,68.62
2022-11-15T14:00:45.842Z,69.05
2022-11-15T14:06:04.610Z,69.42
2022-11-15T14:11:20.587Z,69.48
2022-11-15T14:16:33.118Z,70.26
2022-11-15T14:21:34.554Z,70.72
2022-11-15T14:26:35.857Z,70.69
2022-11-15T14:31:42.569Z,70.58
2022-11-15T14:36:45.053Z,70.59
2022-11-15T14:41:46.317Z,70.59
2022-11-15T14:46:49.004Z,71.97
2022-11-15T14:51:50.288Z,72.85
2022-11-15T14:56:51.540Z,73.41
2022-11-15T15:01:52.881Z,75.18
2022-11-15T15:06:54.198Z,76.29
2022-11-15T15:11:55.665Z,76.56
2022-11-15T15:16:56.913Z,76.94
2022-11-15T15:21:58.175Z,77.66
2022-11-15T15:26:59.440Z,77.44
2022-11-15T15:32:00.772Z,77.67
2022-11-15T15:37:26.208Z,78.43
2022-11-15T15:42:27.485Z,78.67
2022-11-15T15:47:28.835Z,78.44
2022-11-15T15:52:30.113Z,78.75
2022-11-15T15:57:31.361Z,77.64
2022-11-15T16:02:36.313Z,76.73
2022-11-15T16:07:44.044Z,76.54
2022-11-15T16:12:45.395Z,76.32
2022-11-15T16:17:57.756Z,75.20
2022-11-15T16:23:04.405Z,75.32
2022-11-15T16:28:29.877Z,75.07
2022-11-15T16:33:31.946Z,74.19
2022-11-15T16:38:34.449Z,73.89
2022-11-15T16:43:35.991Z,74.24
2022-11-15T16:48:37.388Z,72.67
2022-11-15T16:53:38.783Z,72.60
2022-11-15T16:58:40.031Z,72.20
2022-11-15T17:03:41.282Z,71.85
2022-11-15T17:08:42.688Z,71.85
2022-11-15T17:13:44.411Z,72.16
2022-11-15T17:18:50.440Z,72.36
2022-11-15T17:23:51.814Z,72.00
2022-11-15T17:28:57.125Z,73.06
2022-11-15T17:33:58.529Z,72.66
2022-11-15T17:39:00.320Z,72.17
2022-11-15T17:44:03.361Z,71.82
2022-11-15T17:49:04.732Z,71.69
2022-11-15T17:54:06.229Z,71.08
2022-11-15T17:59:13.817Z,71.19
2022-11-15T18:04:17.528Z,71.70
2022-11-15T18:09:19.295Z,71.79
2022-11-15T18:14:20.837Z,72.44
2022-11-15T18:19:22.248Z,72.76
2022-11-15T18:24:24.064Z,72.28
2022-11-15T18:29:25.653Z,72.84
2022-11-15T18:34:33.498Z,72.80
2022-11-15T18:39:35.110Z,72.88
2022-11-15T18:44:36.506Z,73.21
2022-11-15T18:49:37.739Z,73.50
2022-11-15T18:54:38.996Z,73.42
2022-11-15T18:59:40.267Z,73.34
2022-11-15T19:04:41.619Z,73.15
2022-11-15T19:09:42.929Z,72.83
2022-11-15T19:14:44.199Z,72.91
2022-11-15T19:19:45.479Z,72.83
2022-11-15T19:24:46.777Z,72.80
2022-11-15T19:29:48.048Z,73.11
2022-11-15T19:34:49.297Z,72.89
2022-11-15T19:39:50.638Z,73.00
2022-11-15T19:44:51.939Z,73.24
2022-11-15T19:49:53.182Z,73.27
2022-11-15T19:54:54.480Z,73.68
2022-11-15T19:59:55.744Z,73.56
2022-11-15T20:04:57.036Z,74.18
2022-11-15T20:09:58.753Z,73.84
2022-11-15T20:15:00.041Z,74.20
2022-11-15T20:20:01.367Z,74.64
2022-11-15T20:25:02.841Z,74.94
2022-11-15T20:30:04.741Z,75.49
2022-11-15T20:35:06.078Z,75.60
2022-11-15T20:40:07.935Z,75.79
2022-11-15T20:45:09.549Z,75.41
2022-11-15T20:50:40.588Z,75.88
2022-11-15T20:55:32.217Z,75.58
2022-11-15T21:00:33.643Z,75.72
2022-11-15T21:05:38.421Z,75.56
2022-11-15T21:11:01.770Z,75.95
2022-11-15T21:16:03.726Z,76.12
2022-11-15T21:21:05.606Z,76.79
2022-11-15T21:26:07.401Z,76.68
2022-11-15T21:31:09.151Z,76.47
2022-11-15T21:36:10.448Z,76.75
2022-11-15T21:41:11.720Z,76.87
2022-11-15T21:46:12.995Z,76.47
2022-11-15T21:51:14.423Z,75.52
2022-11-15T21:56:15.898Z,75.08
2022-11-15T22:01:36.186Z,74.89
2022-11-15T22:06:37.675Z,74.91
2022-11-15T22:11:39.039Z,74.90
2022-11-15T22:16:40.391Z,74.57
2022-11-15T22:21:43.136Z,75.46
2022-11-15T22:26:45.555Z,74.54
2022-11-15T22:31:46.862Z,75.48
2022-11-15T22:37:18.186Z,75.55
2022-11-15T22:42:09.676Z,75.71
2022-11-15T22:47:11.090Z,76.05
2022-11-15T22:52:13.593Z,76.58
2022-11-15T22:57:14.911Z,78.03
2022-11-15T23:02:16.316Z,77.13
2022-11-15T23:07:17.658Z,77.40
2022-11-15T23:12:37.754Z,78.38
2022-11-15T23:17:39.089Z,78.72
2022-11-15T23:22:49.180Z,79.21
2022-11-15T23:27:50.445Z,78.83
2022-11-15T23:33:10.547Z,78.87
2022-11-15T23:38:11.815Z,78.27
2022-11-15T23:43:13.116Z,78.54
2022-11-15T23:48:14.553Z,79.47
2022-11-15T23:53:15.965Z,81.02
2022-11-15T23:58:17.259Z,82.19
